Time;durP1;ratioP1;P1;durP2;ratioP2;P2;SDS_P1;SDS_P2;PMS_P1;PMS_P2;Temp;Humidity;BMP_temperature;BMP_pressure;BME280_temperature;BME280_humidity;BME280_pressure;Samples;Min_cycle;Max_cycle;Signal;HPM_P1;HPM_P2
2022/06/12 00:01:25;;;;;;;3.90;2.45;;;;;;;15.94;83.28;101279.13;4956154;29;20466;-71
2022/06/12 00:04:29;;;;;;;6.35;2.08;;;;;;;15.92;83.22;101278.41;4956041;29;20474;-71
2022/06/12 00:07:32;;;;;;;5.88;2.60;;;;;;;15.97;82.57;101280.75;4955944;29;20465;-71
2022/06/12 00:10:39;;;;;;;5.00;2.13;;;;;;;15.90;83.05;101275.00;4955468;29;20413;-70
2022/06/12 00:13:47;;;;;;;4.55;2.38;;;;;;;15.85;83.37;101276.22;4955857;29;20189;-70
2022/06/12 00:16:52;;;;;;;3.83;2.08;;;;;;;15.83;82.85;101273.69;4955659;28;20109;-70
2022/06/12 00:19:56;;;;;;;4.22;2.05;;;;;;;15.78;83.37;101281.88;4955799;29;20125;-70
2022/06/12 00:22:59;;;;;;;4.70;2.25;;;;;;;15.75;83.51;101283.88;4955616;29;20140;-71
2022/06/12 00:26:02;;;;;;;8.70;2.20;;;;;;;15.74;83.63;101284.81;4955688;29;20046;-71
2022/06/12 00:29:13;;;;;;;6.78;2.22;;;;;;;15.62;83.74;101275.00;4955677;29;20074;-71
2022/06/12 00:32:18;;;;;;;5.60;2.38;;;;;;;15.55;83.62;101277.16;4955703;28;20054;-71
2022/06/12 00:35:28;;;;;;;5.68;2.72;;;;;;;15.46;83.33;101278.56;4955547;29;20053;-71
2022/06/12 00:38:31;;;;;;;5.82;2.30;;;;;;;15.42;83.65;101270.94;4959749;28;20056;-71
2022/06/12 00:41:38;;;;;;;5.40;2.15;;;;;;;15.38;83.68;101275.56;4974653;28;20050;-70
2022/06/12 00:44:42;;;;;;;5.38;2.30;;;;;;;15.34;83.40;101279.28;4974595;28;20121;-71
2022/06/12 00:47:46;;;;;;;5.13;2.17;;;;;;;15.30;83.32;101283.91;4974626;28;20045;-71
2022/06/12 00:51:09;;;;;;;3.97;2.28;;;;;;;15.34;83.13;101279.28;4974647;28;20138;-71
2022/06/12 00:54:13;;;;;;;7.15;2.33;;;;;;;15.28;83.23;101279.66;4973683;28;20054;-70
2022/06/12 00:57:18;;;;;;;5.03;2.60;;;;;;;15.20;83.81;101281.91;4974516;28;20069;-71
2022/06/12 01:00:21;;;;;;;6.60;2.25;;;;;;;15.35;82.77;101281.00;4985046;28;20074;-70
2022/06/12 01:03:25;;;;;;;5.32;2.33;;;;;;;15.28;82.89;101283.16;4974273;28;20045;-70
2022/06/12 01:06:35;;;;;;;8.52;3.15;;;;;;;15.11;83.57;101288.56;4974188;28;20050;-71
2022/06/12 01:09:42;;;;;;;5.15;2.08;;;;;;;15.15;83.17;101284.81;4974186;28;20420;-71
2022/06/12 01:12:52;;;;;;;9.75;3.10;;;;;;;15.38;82.30;101285.22;4974426;28;20085;-71
2022/06/12 01:16:04;;;;;;;9.20;3.58;;;;;;;15.19;82.60;101286.34;4973985;28;20076;-71
2022/06/12 01:19:11;;;;;;;6.18;2.50;;;;;;;15.10;82.84;101276.34;4974005;28;20101;-71
2022/06/12 01:22:40;;;;;;;3.50;1.85;;;;;;;15.09;83.08;101286.03;4974024;28;20057;-71
2022/06/12 01:26:17;;;;;;;4.57;2.47;;;;;;;15.05;83.12;101281.88;4964091;28;20046;-71
2022/06/12 01:29:32;;;;;;;5.05;2.35;;;;;;;14.99;83.33;101278.75;4973593;28;20528;-71
2022/06/12 01:32:49;;;;;;;6.07;2.20;;;;;;;14.95;83.25;101277.25;4973700;28;20109;-71
2022/06/12 01:36:12;;;;;;;4.47;2.30;;;;;;;14.99;82.84;101278.75;4973683;28;20133;-71
2022/06/12 01:39:41;;;;;;;5.70;2.63;;;;;;;14.88;83.50;101289.94;4973445;28;20073;-71
2022/06/12 01:43:12;;;;;;;6.97;2.25;;;;;;;15.04;82.98;101282.81;4973627;28;20049;-71
2022/06/12 01:46:18;;;;;;;4.43;2.20;;;;;;;15.03;82.53;101281.13;4973588;28;20053;-71
2022/06/12 01:49:28;;;;;;;4.03;1.95;;;;;;;15.04;82.55;101288.09;4973556;28;20101;-71
2022/06/12 01:52:37;;;;;;;6.43;1.95;;;;;;;15.33;81.37;101283.72;4973423;28;20101;-71
2022/06/12 01:55:55;;;;;;;5.40;2.80;;;;;;;15.05;82.05;101273.13;4973772;28;20092;-71
2022/06/12 01:59:20;;;;;;;3.45;1.92;;;;;;;14.93;82.97;101284.38;4973243;28;20425;-71
2022/06/12 02:02:46;;;;;;;5.15;2.08;;;;;;;14.79;83.34;101279.91;4972469;28;20049;-71
2022/06/12 02:06:00;;;;;;;5.25;2.30;;;;;;;14.87;82.94;101285.59;4973715;28;20410;-71
2022/06/12 02:09:18;;;;;;;3.70;2.35;;;;;;;14.87;82.95;101286.44;4973195;28;20493;-70
2022/06/12 02:15:48;;;;;;;11.57;2.20;;;;;;;14.96;82.40;101285.03;4973357;28;20054;-71
2022/06/12 02:18:57;;;;;;;7.30;3.33;;;;;;;14.81;82.95;101293.84;4973040;28;20058;-71
2022/06/12 02:22:17;;;;;;;4.93;2.53;;;;;;;14.89;82.69;101295.09;4973055;28;20109;-71
2022/06/12 02:25:25;;;;;;;5.55;2.55;;;;;;;15.05;80.81;101287.13;4973003;28;20094;-71
2022/06/12 02:28:37;;;;;;;5.60;2.67;;;;;;;14.89;82.01;101286.34;4973053;28;20072;-71
2022/06/12 02:31:43;;;;;;;6.72;2.25;;;;;;;14.80;82.60;101295.63;4973132;28;20096;-71
2022/06/12 02:34:58;;;;;;;4.78;2.38;;;;;;;14.89;81.81;101283.72;4973076;28;20049;-71
2022/06/12 02:38:09;;;;;;;6.00;2.10;;;;;;;14.92;82.17;101283.53;4972779;28;20152;-71
2022/06/12 02:41:22;;;;;;;5.50;2.53;;;;;;;14.73;83.10;101275.00;4976947;28;20070;-71
2022/06/12 02:44:46;;;;;;;6.13;2.67;;;;;;;14.61;83.85;101279.19;4976756;28;20049;-71
2022/06/12 02:47:50;;;;;;;7.25;2.70;;;;;;;14.65;83.73;101292.09;4976752;28;20050;-71
2022/06/12 02:51:36;;;;;;;4.95;2.35;;;;;;;14.56;84.39;101292.63;4976699;28;20053;-71
2022/06/12 02:55:07;;;;;;;8.18;2.65;;;;;;;14.79;83.85;101298.34;4976771;28;20402;-71
2022/06/12 02:58:33;;;;;;;5.63;2.53;;;;;;;15.02;81.89;101284.69;4976625;28;20057;-71
2022/06/12 03:01:48;;;;;;;8.02;3.80;;;;;;;14.76;83.67;101293.25;4976815;28;20092;-71
2022/06/12 03:05:04;;;;;;;10.98;3.97;;;;;;;14.66;84.55;101290.31;4976786;28;20515;-71
2022/06/12 03:08:16;;;;;;;10.80;6.00;;;;;;;14.57;85.78;101289.03;4976593;28;20104;-71
2022/06/12 03:11:24;;;;;;;11.77;5.35;;;;;;;14.49;86.58;101285.97;4976661;28;20065;-70
2022/06/12 03:14:27;;;;;;;9.25;5.07;;;;;;;14.48;86.98;101292.16;4976372;28;20049;-71
2022/06/12 03:17:31;;;;;;;11.85;6.22;;;;;;;14.53;86.87;101300.69;4976265;28;20524;-71
2022/06/12 03:20:44;;;;;;;11.60;4.85;;;;;;;14.71;86.07;101300.56;4976646;28;20108;-71
2022/06/12 03:24:14;;;;;;;11.03;4.60;;;;;;;14.68;85.38;101303.38;4976149;28;20046;-71
2022/06/12 03:27:35;;;;;;;9.45;5.28;;;;;;;14.59;85.92;101318.75;4976186;28;20692;-71
2022/06/12 03:31:03;;;;;;;8.07;5.05;;;;;;;14.42;86.67;101306.53;4976114;28;20108;-71
2022/06/12 03:34:29;;;;;;;6.43;4.43;;;;;;;14.45;86.02;101315.16;4976084;28;20042;-71
2022/06/12 03:38:13;;;;;;;6.53;4.20;;;;;;;14.43;86.23;101323.16;4975902;28;20097;-71
2022/06/12 03:41:19;;;;;;;6.22;3.63;;;;;;;14.60;85.21;101330.97;4952967;28;20527;-71
2022/06/12 03:44:27;;;;;;;12.57;4.70;;;;;;;14.75;84.65;101323.16;4975843;28;20101;-71
2022/06/12 03:47:35;;;;;;;8.77;3.50;;;;;;;14.79;83.94;101320.25;4975784;28;20061;-71
2022/06/12 03:50:44;;;;;;;6.40;3.78;;;;;;;14.70;84.21;101317.31;4975086;28;20041;-71
2022/06/12 03:53:53;;;;;;;6.53;3.80;;;;;;;14.55;84.89;101325.16;4975707;28;20050;-71
2022/06/12 04:00:41;;;;;;;10.60;4.72;;;;;;;14.65;85.22;101328.09;4975335;28;20046;-71
2022/06/12 04:03:46;;;;;;;9.25;3.78;;;;;;;14.84;84.12;101326.13;4966943;28;20054;-71
2022/06/12 04:06:51;;;;;;;7.10;3.10;;;;;;;14.75;84.28;101324.00;4970262;28;20101;-71
2022/06/12 04:09:58;;;;;;;6.43;3.33;;;;;;;14.93;83.68;101331.78;4975804;28;20082;-71
2022/06/12 04:13:05;;;;;;;6.00;3.83;;;;;;;14.77;84.29;101323.91;4972478;28;20289;-71
2022/06/12 04:16:15;;;;;;;5.53;3.15;;;;;;;14.75;84.48;101328.44;4963903;28;20420;-71
2022/06/12 04:19:23;;;;;;;5.93;2.85;;;;;;;15.04;82.97;101321.47;4975103;28;20113;-71
2022/06/12 04:22:37;;;;;;;4.90;3.00;;;;;;;15.16;82.29;101326.03;4975033;28;20061;-71
2022/06/12 04:26:11;;;;;;;6.40;3.25;;;;;;;14.96;83.06;101314.00;4973700;28;20057;-71
2022/06/12 04:29:31;;;;;;;6.03;3.55;;;;;;;14.75;84.22;101315.28;4614643;28;10000056;-71
2022/06/12 04:32:35;;;;;;;14.48;4.32;;;;;;;14.73;84.32;101320.59;4955666;28;20054;-71
2022/06/12 04:35:47;;;;;;;7.40;5.07;;;;;;;14.68;84.94;101322.66;4966697;28;20133;-71
2022/06/12 04:38:53;;;;;;;7.95;3.15;;;;;;;14.73;84.95;101314.50;4971335;28;20066;-71
2022/06/12 04:41:57;;;;;;;6.72;3.08;;;;;;;14.67;84.70;101312.22;4971079;28;20109;-71
2022/06/12 04:45:03;;;;;;;5.15;3.58;;;;;;;14.56;85.50;101324.19;4970984;28;20413;-71
2022/06/12 04:48:12;;;;;;;4.28;2.80;;;;;;;14.63;85.41;101320.28;4971039;28;20085;-71
2022/06/12 04:51:17;;;;;;;8.27;3.40;;;;;;;14.69;84.99;101315.63;4971163;28;20050;-71
2022/06/12 04:54:22;;;;;;;4.35;3.15;;;;;;;14.42;85.58;101321.44;4970210;28;20089;-71
2022/06/12 04:57:25;;;;;;;5.68;2.90;;;;;;;14.67;84.86;101320.94;4970912;28;20054;-71
2022/06/12 05:00:29;;;;;;;5.88;2.60;;;;;;;14.64;84.33;101315.84;4971100;28;20058;-71
2022/06/12 05:03:32;;;;;;;6.95;3.20;;;;;;;14.76;83.84;101324.84;4969894;28;20109;-71
2022/06/12 05:06:36;;;;;;;5.68;2.70;;;;;;;14.46;85.14;101323.00;4951382;28;20106;-70
2022/06/12 05:09:41;;;;;;;4.32;2.22;;;;;;;14.62;84.29;101329.13;4951401;29;20166;-70
2022/06/12 05:12:45;;;;;;;12.02;2.55;;;;;;;14.50;85.10;101326.28;4939467;29;20102;-70
2022/06/12 05:15:49;;;;;;;4.53;2.70;;;;;;;14.56;85.15;101328.63;4950796;29;20058;-71
2022/06/12 05:18:53;;;;;;;3.80;2.30;;;;;;;14.70;84.46;101327.84;4951136;29;20424;-71
2022/06/12 05:21:56;;;;;;;4.57;2.50;;;;;;;14.79;84.29;101319.41;4951027;29;20081;-71
2022/06/12 05:24:59;;;;;;;4.22;2.20;;;;;;;14.81;84.62;101330.72;4951555;29;20066;-71
2022/06/12 05:28:04;;;;;;;4.25;2.47;;;;;;;14.77;85.20;101331.81;4950433;28;20069;-71
2022/06/12 05:31:07;;;;;;;5.18;2.13;;;;;;;15.02;84.33;101328.63;4951965;28;20049;-71
2022/06/12 05:34:10;;;;;;;4.93;2.20;;;;;;;15.18;84.34;101321.50;4970008;28;20121;-71
2022/06/12 05:37:14;;;;;;;5.60;3.20;;;;;;;15.34;83.55;101316.19;4956439;28;20053;-71
2022/06/12 05:40:25;;;;;;;7.50;2.30;;;;;;;15.36;83.45;101319.59;4967695;28;20101;-71
2022/06/12 05:43:29;;;;;;;8.05;3.00;;;;;;;15.56;83.06;101313.09;4599839;28;9999792;-70
2022/06/12 05:46:32;;;;;;;5.88;2.53;;;;;;;15.75;82.81;101320.78;4950978;29;20118;-71
2022/06/12 05:49:36;;;;;;;5.45;3.10;;;;;;;15.86;82.61;101313.06;4951133;29;20054;-71
2022/06/12 05:52:39;;;;;;;6.88;3.05;;;;;;;15.88;82.10;101311.16;4959632;28;20121;-71
2022/06/12 05:55:44;;;;;;;5.57;2.80;;;;;;;15.85;82.43;101314.00;4954013;29;20476;-71
2022/06/12 05:58:47;;;;;;;7.40;3.10;;;;;;;16.08;81.53;101309.06;4971806;28;20081;-71
2022/06/12 06:01:51;;;;;;;7.38;2.30;;;;;;;16.18;81.42;101304.94;4973513;28;20126;-71
2022/06/12 06:04:55;;;;;;;6.60;3.00;;;;;;;16.09;83.05;101294.97;4973500;28;20528;-73
2022/06/12 06:07:58;;;;;;;4.88;2.22;;;;;;;16.29;83.28;101299.81;4969011;28;20110;-71
2022/06/12 06:11:03;;;;;;;4.97;2.83;;;;;;;16.47;81.92;101297.78;4968529;28;20053;-72
2022/06/12 06:14:07;;;;;;;10.65;2.72;;;;;;;16.45;81.69;101303.16;4954135;28;20512;-73
2022/06/12 06:17:10;;;;;;;8.85;2.55;;;;;;;16.61;81.44;101299.53;4954545;29;20078;-73
2022/06/12 06:20:18;;;;;;;6.80;2.00;;;;;;;16.69;80.27;101298.09;4956792;28;20178;-72
2022/06/12 06:23:21;;;;;;;8.10;2.50;;;;;;;16.80;80.25;101297.38;4958781;28;20089;-73
2022/06/12 06:26:24;;;;;;;6.68;2.28;;;;;;;16.93;79.11;101300.06;4973220;28;20122;-70
2022/06/12 06:29:28;;;;;;;7.90;2.40;;;;;;;17.01;78.60;101302.22;4973494;28;20053;-70
2022/06/12 06:32:32;;;;;;;9.13;2.92;;;;;;;17.07;77.21;101310.56;4973408;28;20077;-70
2022/06/12 06:35:37;;;;;;;8.43;2.83;;;;;;;17.19;76.55;101308.88;4973451;28;20556;-70
2022/06/12 06:38:40;;;;;;;6.95;2.25;;;;;;;17.29;76.44;101302.00;4973269;28;20081;-70
2022/06/12 06:41:43;;;;;;;7.53;2.47;;;;;;;17.42;75.89;101292.31;4958807;28;20458;-71
2022/06/12 06:48:10;;;;;;;11.65;2.38;;;;;;;17.65;75.43;101281.94;4956969;28;20134;-72
2022/06/12 06:55:33;;;;;;;7.57;2.60;;;;;;;17.89;74.58;101282.88;4954160;29;20057;-73
2022/06/12 06:58:46;;;;;;;5.90;2.03;;;;;;;18.02;73.40;101274.06;4957274;28;20073;-70
2022/06/12 07:01:50;;;;;;;;;;;;;;;18.12;72.71;101285.66;4938700;28;20051;-70
2022/06/12 07:04:53;;;;;;;12.45;3.17;;;;;;;18.18;72.68;101284.41;4966544;28;19973;-71
2022/06/12 07:07:58;;;;;;;7.53;2.20;;;;;;;18.28;72.23;101286.28;4951952;28;20042;-71
2022/06/12 07:11:11;;;;;;;10.73;2.97;;;;;;;18.42;71.28;101284.44;4952678;29;20086;-72
2022/06/12 07:14:15;;;;;;;8.02;2.75;;;;;;;18.41;69.76;101282.72;4953396;29;20576;-70
2022/06/12 07:17:19;;;;;;;7.65;2.33;;;;;;;18.49;70.59;101280.38;4953659;29;20429;-70
2022/06/12 07:20:26;;;;;;;12.23;2.40;;;;;;;18.64;70.19;101281.88;4962447;28;20089;-71
2022/06/12 07:23:31;;;;;;;7.95;2.53;;;;;;;18.67;69.47;101280.81;4972852;28;20082;-71
2022/06/12 07:26:38;;;;;;;10.63;2.92;;;;;;;18.74;69.75;101280.28;4974613;28;20412;-71
2022/06/12 07:29:41;;;;;;;6.68;2.00;;;;;;;18.78;70.14;101267.63;4968485;28;20050;-71
2022/06/12 07:32:46;;;;;;;8.20;2.10;;;;;;;18.90;69.70;101263.22;4981906;23;20111;-71
2022/06/12 07:35:50;;;;;;;10.32;2.70;;;;;;;18.97;68.74;101264.44;5011853;28;20096;-70
2022/06/12 07:38:55;;;;;;;6.18;2.17;;;;;;;18.99;67.40;101262.53;4995661;28;20073;-70
2022/06/12 07:41:59;;;;;;;7.95;2.53;;;;;;;19.11;68.07;101269.53;5011056;28;20091;-71
2022/06/12 07:45:02;;;;;;;6.72;2.42;;;;;;;19.32;67.40;101261.75;5014863;28;20566;-71
2022/06/12 07:48:06;;;;;;;8.10;2.30;;;;;;;19.37;65.52;101262.25;5015114;28;20513;-71
2022/06/12 07:51:13;;;;;;;8.43;2.42;;;;;;;19.39;65.00;101262.09;5014715;28;20064;-69
2022/06/12 07:54:18;;;;;;;6.68;2.78;;;;;;;19.38;65.63;101266.56;5008609;28;20076;-69
2022/06/12 07:57:23;;;;;;;7.18;2.72;;;;;;;19.41;65.89;101262.84;5011331;28;20115;-69
2022/06/12 08:01:00;;;;;;;10.52;2.45;;;;;;;19.43;67.08;101259.13;5014322;28;20052;-70
2022/06/12 08:04:05;;;;;;;7.60;2.03;;;;;;;19.45;66.98;101266.94;5001904;28;20128;-69
2022/06/12 08:07:09;;;;;;;7.97;2.25;;;;;;;19.61;66.45;101262.13;5014488;28;20048;-69
2022/06/12 08:10:14;;;;;;;6.32;2.15;;;;;;;19.65;66.15;101258.28;5014559;28;20057;-69
2022/06/12 08:13:18;;;;;;;6.63;2.08;;;;;;;19.88;62.67;101263.59;5014400;28;20105;-69
2022/06/12 08:16:21;;;;;;;8.30;2.80;;;;;;;19.78;63.10;101252.00;5014399;28;20077;-69
2022/06/12 08:22:47;;;;;;;5.20;1.70;;;;;;;20.29;59.98;101260.22;5014170;28;20099;-70
2022/06/12 08:25:50;;;;;;;8.02;1.90;;;;;;;20.36;60.33;101257.94;5014073;28;20045;-69
2022/06/12 08:29:04;;;;;;;9.55;2.05;;;;;;;20.51;60.60;101262.00;5014026;28;20557;-69
2022/06/12 08:32:13;;;;;;;7.28;2.13;;;;;;;20.39;59.08;101263.84;5015651;28;20056;-70
2022/06/12 08:35:24;;;;;;;8.82;2.45;;;;;;;20.40;59.01;101257.56;5029597;28;20411;-69
2022/06/12 08:38:27;;;;;;;10.93;2.38;;;;;;;20.44;58.47;101260.78;5032977;28;20462;-69
2022/06/12 08:41:31;;;;;;;7.38;2.00;;;;;;;20.65;56.93;101252.91;5033373;28;20052;-68
2022/06/12 08:44:53;;;;;;;7.85;1.92;;;;;;;20.54;57.47;101256.44;5021082;28;20473;-69
2022/06/12 08:48:25;;;;;;;6.93;1.70;;;;;;;20.94;54.84;101254.94;5027799;28;20521;-70
2022/06/12 08:51:46;;;;;;;8.85;2.10;;;;;;;21.06;53.47;101245.94;5020524;28;20083;-70
2022/06/12 08:55:05;;;;;;;5.45;1.70;;;;;;;21.10;52.85;101244.69;5013311;28;20052;-70
2022/06/12 08:58:26;;;;;;;6.15;1.63;;;;;;;21.11;52.33;101246.34;5013680;28;20115;-66
2022/06/12 09:01:31;;;;;;;4.88;1.30;;;;;;;21.10;53.38;101240.19;5013388;28;20063;-66
2022/06/12 09:04:34;;;;;;;5.75;2.25;;;;;;;21.00;55.16;101234.00;5012021;28;20048;-65
2022/06/12 09:07:38;;;;;;;5.85;1.38;;;;;;;21.44;53.81;101224.03;5010932;28;20095;-66
2022/06/12 09:10:56;;;;;;;4.32;1.30;;;;;;;21.32;51.64;101225.06;5013211;28;20052;-67
2022/06/12 09:14:08;;;;;;;5.70;1.25;;;;;;;21.34;52.65;101215.94;5013173;28;20049;-64
2022/06/12 09:17:48;;;;;;;8.05;2.08;;;;;;;21.30;50.65;101217.22;5012965;28;20065;-64
2022/06/12 09:21:00;;;;;;;5.40;1.58;;;;;;;21.38;51.67;101218.38;5013229;28;20104;-65
2022/06/12 09:24:58;;;;;;;8.90;1.75;;;;;;;21.29;50.13;101210.22;5012668;28;20414;-66
2022/06/12 09:28:37;;;;;;;10.30;2.20;;;;;;;21.50;49.81;101218.16;5012879;28;20406;-65
2022/06/12 09:31:55;;;;;;;5.88;1.95;;;;;;;21.40;50.24;101211.13;5004300;28;20084;-66
2022/06/12 09:35:07;;;;;;;8.45;1.50;;;;;;;21.46;50.58;101205.28;5000772;28;20104;-62
2022/06/12 09:38:28;;;;;;;5.15;1.67;;;;;;;21.68;49.15;101205.06;5012552;28;20147;-63
2022/06/12 09:41:37;;;;;;;7.38;1.67;;;;;;;21.64;47.81;101198.34;5012541;28;20491;-63
2022/06/12 09:44:52;;;;;;;4.93;1.40;;;;;;;21.72;48.35;101197.66;5012548;28;20037;-63
2022/06/12 09:48:11;;;;;;;4.90;1.60;;;;;;;21.77;47.92;101203.41;5018256;28;20200;-63
2022/06/12 09:51:36;;;;;;;7.47;2.30;;;;;;;21.81;48.56;101199.50;5032260;28;20095;-64
2022/06/12 09:54:53;;;;;;;4.53;1.45;;;;;;;21.77;49.08;101204.25;5032077;28;20064;-64
2022/06/12 09:58:06;;;;;;;6.25;2.30;;;;;;;21.85;48.29;101200.91;5032256;28;20056;-63
2022/06/12 10:01:16;;;;;;;6.35;1.60;;;;;;;21.72;48.65;101189.66;5032061;28;20060;-61
2022/06/12 10:05:02;;;;;;;6.53;1.80;;;;;;;21.92;49.84;101177.22;5031928;28;20045;-63
2022/06/12 10:08:26;;;;;;;5.20;1.58;;;;;;;21.92;48.41;101190.53;5017559;28;20096;-63
2022/06/12 10:11:40;;;;;;;5.45;1.50;;;;;;;22.10;47.40;101169.41;5016745;28;20056;-62
2022/06/12 10:14:48;;;;;;;6.72;1.95;;;;;;;22.07;47.40;101170.53;5031399;28;20090;-64
2022/06/12 10:18:24;;;;;;;7.07;1.63;;;;;;;22.09;47.23;101167.72;5031822;28;20486;-64
2022/06/12 10:21:32;;;;;;;5.60;2.13;;;;;;;22.49;47.48;101179.13;5031957;28;20116;-63
2022/06/12 10:24:36;;;;;;;6.20;1.58;;;;;;;22.40;45.81;101171.97;5031518;28;20096;-66
2022/06/12 10:27:47;;;;;;;7.38;1.60;;;;;;;22.52;47.87;101161.97;5031654;28;20091;-63
2022/06/12 10:31:03;;;;;;;5.80;1.65;;;;;;;22.61;47.62;101154.97;4328871;28;10000713;-63
2022/06/12 10:34:18;;;;;;;5.22;1.55;;;;;;;22.67;47.25;101154.41;5008180;28;20064;-66
2022/06/12 10:37:28;;;;;;;8.52;2.15;;;;;;;22.60;46.82;101153.28;5008087;28;20431;-62
2022/06/12 10:40:32;;;;;;;7.47;1.40;;;;;;;22.39;45.89;101151.63;5008256;28;20061;-62
2022/06/12 10:43:50;;;;;;;5.40;1.67;;;;;;;22.74;45.88;101144.84;5007784;28;20048;-62
2022/06/12 10:46:53;;;;;;;4.63;1.67;;;;;;;22.94;44.61;101151.84;5008393;28;20143;-61
2022/06/12 10:50:20;;;;;;;8.35;1.73;;;;;;;23.13;45.53;101145.59;5007147;28;20053;-62
2022/06/12 10:53:27;;;;;;;6.45;1.40;;;;;;;22.71;43.50;101148.63;5008007;28;20631;-62
2022/06/12 10:56:56;;;;;;;6.60;1.58;;;;;;;22.80;43.97;101133.59;5008249;28;20104;-63
2022/06/12 11:00:26;;;;;;;5.65;1.83;;;;;;;23.05;45.07;101139.31;5008183;28;20052;-64
2022/06/12 11:04:00;;;;;;;7.53;1.63;;;;;;;23.13;43.83;101128.72;5012294;28;20125;-62
2022/06/12 11:07:18;;;;;;;6.80;1.55;;;;;;;23.21;43.61;101129.69;5016262;28;20048;-62
2022/06/12 11:10:53;;;;;;;6.43;2.05;;;;;;;23.03;42.32;101131.44;5032092;28;20111;-62
2022/06/12 11:14:03;;;;;;;8.35;1.40;;;;;;;23.26;42.96;101123.91;5031722;28;20095;-74
2022/06/12 11:17:36;;;;;;;5.82;1.60;;;;;;;23.43;43.65;101114.25;5035186;28;20072;-69
2022/06/12 11:21:27;;;;;;;3.97;1.25;;;;;;;23.42;42.30;101105.44;5012635;28;20514;-69
2022/06/12 11:24:44;;;;;;;7.10;2.08;;;;;;;23.40;43.40;101114.56;5034657;28;20465;-69
2022/06/12 11:28:02;;;;;;;6.70;2.03;;;;;;;23.61;42.54;101099.13;5034579;28;20160;-73
2022/06/12 11:31:24;;;;;;;9.20;2.05;;;;;;;23.53;42.55;101106.19;5014927;28;20424;-70
2022/06/12 11:34:49;;;;;;;5.38;1.58;;;;;;;23.44;42.70;101098.09;5015128;28;20111;-69
2022/06/12 11:38:20;;;;;;;3.60;1.27;;;;;;;23.63;44.28;101104.28;5015076;28;20048;-69
2022/06/12 11:41:52;;;;;;;7.75;2.13;;;;;;;23.65;42.73;101097.00;5014820;28;20080;-73
2022/06/12 11:45:22;;;;;;;9.85;1.58;;;;;;;23.74;40.00;101096.13;5013838;28;20161;-70
2022/06/12 11:48:35;;;;;;;4.70;2.00;;;;;;;23.58;40.38;101085.22;5014559;28;20141;-71
2022/06/12 11:51:49;;;;;;;6.65;1.52;;;;;;;23.71;40.92;101085.75;5014940;28;20053;-71
2022/06/12 11:55:22;;;;;;;6.93;1.75;;;;;;;24.02;41.49;101080.00;5014715;28;20099;-72
2022/06/12 11:58:41;;;;;;;6.30;1.70;;;;;;;23.90;40.71;101071.41;5014664;28;20056;-69
2022/06/12 12:01:58;;;;;;;3.95;1.20;;;;;;;23.89;40.82;101065.19;5014635;28;20068;-69
2022/06/12 12:05:26;;;;;;;6.95;1.40;;;;;;;24.05;40.71;101067.16;5015064;28;20053;-70
2022/06/12 12:08:58;;;;;;;5.75;1.90;;;;;;;24.13;39.61;101055.72;5014385;28;20125;-69
2022/06/12 12:12:09;;;;;;;8.13;1.73;;;;;;;24.13;41.05;101063.72;5013907;28;20095;-70
2022/06/12 12:15:35;;;;;;;6.78;1.27;;;;;;;24.21;40.72;101061.09;5014515;28;20141;-70
2022/06/12 12:18:53;;;;;;;5.85;1.75;;;;;;;24.24;39.98;101051.94;5014093;28;20108;-71
2022/06/12 12:22:01;;;;;;;6.18;1.65;;;;;;;24.45;40.53;101041.75;5014255;28;20057;-71
2022/06/12 12:25:19;;;;;;;5.15;1.10;;;;;;;24.64;40.54;101048.72;5014500;28;20056;-71
2022/06/12 12:28:42;;;;;;;5.68;1.35;;;;;;;24.70;40.06;101036.56;5014030;28;20111;-71
2022/06/12 12:31:47;;;;;;;6.15;1.55;;;;;;;24.40;40.55;101040.53;5013416;28;20110;-71
2022/06/12 12:34:54;;;;;;;4.72;1.48;;;;;;;24.59;40.59;101040.31;5013590;28;20503;-71
2022/06/12 12:41:26;;;;;;;4.57;1.30;;;;;;;25.12;38.92;101033.91;5014229;28;20096;-66
2022/06/12 12:44:39;;;;;;;6.53;1.30;;;;;;;25.27;38.78;101013.53;5013862;28;20096;-69
2022/06/12 12:47:42;;;;;;;4.93;1.65;;;;;;;25.45;39.11;101010.72;5013865;28;20053;-70
2022/06/12 12:50:52;;;;;;;6.13;1.80;;;;;;;25.72;37.83;101014.94;5013551;28;20063;-71
2022/06/12 12:54:11;;;;;;;10.50;1.40;;;;;;;25.97;36.19;101022.97;5013489;28;20048;-80
2022/06/12 12:57:18;;;;;;;3.05;1.13;;;;;;;26.03;33.33;101016.09;5013575;28;20049;-80
2022/06/12 13:00:28;;;;;;;4.18;1.30;;;;;;;26.03;32.16;101008.91;5013612;28;20052;-79
2022/06/12 13:03:36;;;;;;;2.60;0.90;;;;;;;25.96;32.39;101002.56;5013627;28;20048;-81
2022/06/12 13:06:51;;;;;;;5.90;1.13;;;;;;;26.13;32.21;100989.97;5013407;28;20052;-80
2022/06/12 13:10:07;;;;;;;3.13;1.00;;;;;;;26.26;33.11;100994.78;5013420;28;20096;-80
2022/06/12 13:13:33;;;;;;;5.45;1.42;;;;;;;26.42;33.04;100994.78;5012287;28;20108;-80
2022/06/12 13:17:11;;;;;;;4.30;1.20;;;;;;;26.68;30.13;100989.19;5013015;28;20049;-80
2022/06/12 13:20:33;;;;;;;2.50;0.93;;;;;;;26.55;30.80;100980.84;5013631;28;20052;-81
2022/06/12 13:24:01;;;;;;;5.82;1.40;;;;;;;26.98;29.98;100984.81;5012484;28;20044;-81
2022/06/12 13:27:31;;;;;;;6.80;1.00;;;;;;;26.35;29.38;100986.56;5012977;28;20076;-83
2022/06/12 13:30:40;;;;;;;3.93;1.33;;;;;;;26.99;28.95;100974.91;5013219;28;20044;-83
2022/06/12 13:33:57;;;;;;;3.45;1.45;;;;;;;27.39;27.82;100965.78;5012813;28;20323;-81
2022/06/12 13:37:05;;;;;;;2.92;1.10;;;;;;;27.73;28.21;100961.84;5012970;28;20048;-77
2022/06/12 13:40:32;;;;;;;6.53;1.55;;;;;;;27.27;28.46;100964.53;5012912;28;20045;-81
2022/06/12 13:43:41;;;;;;;4.85;1.17;;;;;;;27.81;28.57;100959.09;5012713;28;20128;-77
2022/06/12 13:46:45;;;;;;;5.03;1.25;;;;;;;28.30;28.69;100939.75;5013189;28;20526;-78
2022/06/12 13:50:07;;;;;;;3.30;1.25;;;;;;;28.70;28.41;100938.44;5012973;28;20096;-81
2022/06/12 13:53:15;;;;;;;;;;;;;;;28.81;26.25;100938.97;5013299;28;20053;-78
2022/06/12 13:56:20;;;;;;;4.78;1.08;;;;;;;28.32;26.49;100945.78;5012264;28;20430;-77
2022/06/12 13:59:26;;;;;;;3.47;1.20;;;;;;;29.05;25.56;100941.34;5012289;28;20577;-80
2022/06/12 14:02:34;;;;;;;4.47;1.52;;;;;;;29.46;25.42;100924.53;5012460;28;20103;-68
2022/06/12 14:05:47;;;;;;;4.05;1.05;;;;;;;28.52;26.90;100925.38;5012571;28;20530;-84
2022/06/12 14:09:17;;;;;;;5.75;1.00;;;;;;;29.48;25.06;100932.41;5012537;28;20419;-81
2022/06/12 14:12:21;;;;;;;3.35;1.13;;;;;;;29.82;25.40;100924.41;5012079;28;20095;-81
2022/06/12 14:15:26;;;;;;;4.20;1.65;;;;;;;31.84;23.92;100920.25;5012402;28;20048;-80
2022/06/12 14:18:34;;;;;;;4.90;1.48;;;;;;;31.84;23.98;100915.66;5012403;28;20116;-81
2022/06/12 14:21:41;;;;;;;4.82;1.23;;;;;;;32.98;21.82;100914.25;5012335;28;20416;-80
2022/06/12 14:24:58;;;;;;;4.22;1.38;;;;;;;33.51;21.77;100905.75;5012259;28;20519;-78
2022/06/12 14:28:03;;;;;;;4.03;1.70;;;;;;;35.50;19.89;100904.25;5000220;28;20141;-81
2022/06/12 14:31:25;;;;;;;3.55;1.20;;;;;;;34.26;20.89;100904.75;5012411;28;20096;-82
2022/06/12 14:34:28;;;;;;;4.60;1.60;;;;;;;34.12;21.01;100908.72;5000455;28;20095;-82
2022/06/12 14:37:31;;;;;;;5.53;1.73;;;;;;;34.37;20.57;100911.34;5016381;28;20064;-81
2022/06/12 14:40:37;;;;;;;7.35;1.88;;;;;;;33.83;21.18;100913.78;5016423;28;20057;-81
2022/06/12 14:43:40;;;;;;;3.83;1.35;;;;;;;35.25;20.26;100910.72;5016001;28;20068;-81
2022/06/12 14:46:45;;;;;;;4.18;1.17;;;;;;;34.23;20.89;100905.22;5016181;28;20096;-81
2022/06/12 14:49:52;;;;;;;4.30;1.48;;;;;;;34.76;20.62;100906.44;5015986;28;20048;-82
2022/06/12 14:52:55;;;;;;;4.68;1.35;;;;;;;35.67;20.94;100902.50;5015963;28;20045;-81
2022/06/12 14:56:02;;;;;;;3.38;1.50;;;;;;;35.21;21.69;100904.09;5015953;28;20049;-82
2022/06/12 14:59:14;;;;;;;5.38;1.98;;;;;;;34.63;22.69;100902.03;5015909;28;20044;-82
2022/06/12 15:02:30;;;;;;;4.57;1.45;;;;;;;30.07;28.33;100916.69;5015175;28;20049;-83
2022/06/12 15:05:33;;;;;;;5.47;1.60;;;;;;;32.42;25.56;100907.63;5015178;28;20573;-82
2022/06/12 15:08:37;;;;;;;4.57;1.40;;;;;;;31.99;26.44;100904.66;5015638;28;20069;-81
2022/06/12 15:11:42;;;;;;;13.55;2.90;;;;;;;32.57;25.13;100893.84;5015900;28;20145;-80
2022/06/12 15:14:46;;;;;;;5.15;1.58;;;;;;;32.47;24.98;100898.88;5015703;28;20514;-80